Adner, Louisiana
Current Conditions -  °F | °C
As of 6:58 AM on Thursday 23 Oct 2014 (Local Time) from KBAD Reporting Station
Broken Clouds Broken Clouds  
Wind Chill: 54°   Ceiling: 17000
Heat Index: 54°   Visibility: 10mi
Dew Point: 48°   Wind: 3mph
Humidity: 79%   Direction: 50°NE
Pressure: 30.14"   Gusts: NA
Location:  32.5391°N, 93.5257°W
Report Text: KBAD 231158Z AUTO 05003KT 10SM BKN170 12/09 A3014 RMK AO2 SLP209 T01240089 10149 20124 53002
Loading
Personal Weather Stations






























Interactive Weather Map
Tropical Storm Tracking
New forecast layout! Learn more

10-Day Weather Forecast

Advertisements
Track Severe Weather on mobile